sensor_id;sensor_type;location;lat;lon;timestamp;temperature;humidity
20376;DHT22;10347;51.828;6.466;2022-12-07T00:01:35;6.90;99.90
20376;DHT22;10347;51.828;6.466;2022-12-07T00:04:03;6.90;99.90
20376;DHT22;10347;51.828;6.466;2022-12-07T00:06:41;6.90;99.90
20376;DHT22;10347;51.828;6.466;2022-12-07T00:09:10;6.90;99.90
20376;DHT22;10347;51.828;6.466;2022-12-07T00:11:36;6.90;99.90
20376;DHT22;10347;51.828;6.466;2022-12-07T00:14:04;6.80;99.90
20376;DHT22;10347;51.828;6.466;2022-12-07T00:16:33;6.80;99.90
20376;DHT22;10347;51.828;6.466;2022-12-07T00:18:59;6.80;99.90
20376;DHT22;10347;51.828;6.466;2022-12-07T00:21:28;6.80;99.90
20376;DHT22;10347;51.828;6.466;2022-12-07T00:23:54;6.80;99.90
20376;DHT22;10347;51.828;6.466;2022-12-07T00:26:25;6.80;99.90
20376;DHT22;10347;51.828;6.466;2022-12-07T00:28:53;6.80;99.90
20376;DHT22;10347;51.828;6.466;2022-12-07T00:31:21;6.80;99.90
20376;DHT22;10347;51.828;6.466;2022-12-07T00:33:48;6.80;99.90
20376;DHT22;10347;51.828;6.466;2022-12-07T00:36:15;6.70;99.90
20376;DHT22;10347;51.828;6.466;2022-12-07T00:38:42;6.80;99.90
20376;DHT22;10347;51.828;6.466;2022-12-07T00:41:12;6.80;99.90
20376;DHT22;10347;51.828;6.466;2022-12-07T00:43:39;6.70;99.90
20376;DHT22;10347;51.828;6.466;2022-12-07T00:46:05;6.80;99.90
20376;DHT22;10347;51.828;6.466;2022-12-07T00:48:31;6.80;99.90
20376;DHT22;10347;51.828;6.466;2022-12-07T00:50:57;6.80;99.90
20376;DHT22;10347;51.828;6.466;2022-12-07T00:53:22;6.80;99.90
20376;DHT22;10347;51.828;6.466;2022-12-07T00:55:48;6.80;99.90
20376;DHT22;10347;51.828;6.466;2022-12-07T00:58:14;6.80;99.90
20376;DHT22;10347;51.828;6.466;2022-12-07T01:00:41;6.80;99.90
20376;DHT22;10347;51.828;6.466;2022-12-07T01:03:09;6.80;99.90
20376;DHT22;10347;51.828;6.466;2022-12-07T01:05:35;6.80;99.90
20376;DHT22;10347;51.828;6.466;2022-12-07T01:08:01;6.80;99.90
20376;DHT22;10347;51.828;6.466;2022-12-07T01:10:27;6.80;99.90
20376;DHT22;10347;51.828;6.466;2022-12-07T01:12:52;6.80;99.90
20376;DHT22;10347;51.828;6.466;2022-12-07T01:15:18;6.80;99.90
20376;DHT22;10347;51.828;6.466;2022-12-07T01:17:44;6.70;99.90
20376;DHT22;10347;51.828;6.466;2022-12-07T01:20:10;6.70;99.90
20376;DHT22;10347;51.828;6.466;2022-12-07T01:22:40;6.70;99.90
20376;DHT22;10347;51.828;6.466;2022-12-07T01:25:07;6.70;99.90
20376;DHT22;10347;51.828;6.466;2022-12-07T01:27:34;6.60;99.90
20376;DHT22;10347;51.828;6.466;2022-12-07T01:30:00;6.60;99.90
20376;DHT22;10347;51.828;6.466;2022-12-07T01:32:26;6.50;99.90
20376;DHT22;10347;51.828;6.466;2022-12-07T01:34:52;6.60;99.90
20376;DHT22;10347;51.828;6.466;2022-12-07T01:37:18;6.50;99.90
20376;DHT22;10347;51.828;6.466;2022-12-07T01:39:44;6.50;99.90
20376;DHT22;10347;51.828;6.466;2022-12-07T01:42:10;6.50;99.90
20376;DHT22;10347;51.828;6.466;2022-12-07T01:47:40;6.40;99.90
20376;DHT22;10347;51.828;6.466;2022-12-07T01:50:06;6.40;99.90
20376;DHT22;10347;51.828;6.466;2022-12-07T01:52:33;6.30;99.90
20376;DHT22;10347;51.828;6.466;2022-12-07T01:55:04;6.30;99.90
20376;DHT22;10347;51.828;6.466;2022-12-07T01:57:33;6.30;99.90
20376;DHT22;10347;51.828;6.466;2022-12-07T01:59:59;6.30;99.90
20376;DHT22;10347;51.828;6.466;2022-12-07T02:02:32;6.30;99.90
20376;DHT22;10347;51.828;6.466;2022-12-07T02:05:00;6.20;99.90
20376;DHT22;10347;51.828;6.466;2022-12-07T02:07:27;6.30;99.90
20376;DHT22;10347;51.828;6.466;2022-12-07T02:09:53;6.20;99.90
20376;DHT22;10347;51.828;6.466;2022-12-07T02:12:19;6.20;99.90
20376;DHT22;10347;51.828;6.466;2022-12-07T02:14:45;6.20;99.90
20376;DHT22;10347;51.828;6.466;2022-12-07T02:17:24;6.10;99.90
20376;DHT22;10347;51.828;6.466;2022-12-07T02:27:46;6.00;99.90
20376;DHT22;10347;51.828;6.466;2022-12-07T02:30:26;6.00;99.90
20376;DHT22;10347;51.828;6.466;2022-12-07T02:33:02;6.00;99.90
20376;DHT22;10347;51.828;6.466;2022-12-07T02:35:42;6.00;99.90
20376;DHT22;10347;51.828;6.466;2022-12-07T02:38:47;6.00;99.90
20376;DHT22;10347;51.828;6.466;2022-12-07T02:41:22;6.00;99.90
20376;DHT22;10347;51.828;6.466;2022-12-07T02:44:02;6.00;99.90
20376;DHT22;10347;51.828;6.466;2022-12-07T02:46:32;6.00;99.90
20376;DHT22;10347;51.828;6.466;2022-12-07T02:48:58;6.00;99.90
20376;DHT22;10347;51.828;6.466;2022-12-07T02:51:25;6.00;99.90
20376;DHT22;10347;51.828;6.466;2022-12-07T02:53:51;6.00;99.90
20376;DHT22;10347;51.828;6.466;2022-12-07T03:10:59;5.90;99.90
20376;DHT22;10347;51.828;6.466;2022-12-07T03:18:40;5.90;99.90
20376;DHT22;10347;51.828;6.466;2022-12-07T03:21:13;5.90;99.90
20376;DHT22;10347;51.828;6.466;2022-12-07T03:23:40;5.90;99.90
20376;DHT22;10347;51.828;6.466;2022-12-07T03:26:11;5.90;99.90
20376;DHT22;10347;51.828;6.466;2022-12-07T03:28:43;5.90;99.90
20376;DHT22;10347;51.828;6.466;2022-12-07T03:31:23;5.90;99.90
20376;DHT22;10347;51.828;6.466;2022-12-07T03:34:12;5.90;99.90
20376;DHT22;10347;51.828;6.466;2022-12-07T03:37:07;6.00;99.90
20376;DHT22;10347;51.828;6.466;2022-12-07T03:39:53;6.00;99.90
20376;DHT22;10347;51.828;6.466;2022-12-07T03:42:22;6.00;99.90
20376;DHT22;10347;51.828;6.466;2022-12-07T03:44:48;6.00;99.90
20376;DHT22;10347;51.828;6.466;2022-12-07T03:47:26;6.00;99.90
20376;DHT22;10347;51.828;6.466;2022-12-07T03:53:09;6.00;99.90
20376;DHT22;10347;51.828;6.466;2022-12-07T03:55:39;6.00;99.90
20376;DHT22;10347;51.828;6.466;2022-12-07T03:58:13;6.00;99.90
20376;DHT22;10347;51.828;6.466;2022-12-07T04:00:41;5.90;99.90
20376;DHT22;10347;51.828;6.466;2022-12-07T04:03:08;5.90;99.90
20376;DHT22;10347;51.828;6.466;2022-12-07T04:05:33;6.00;99.90
20376;DHT22;10347;51.828;6.466;2022-12-07T04:07:59;6.00;99.90
20376;DHT22;10347;51.828;6.466;2022-12-07T04:10:25;6.00;99.90
20376;DHT22;10347;51.828;6.466;2022-12-07T04:12:50;6.00;99.90
20376;DHT22;10347;51.828;6.466;2022-12-07T04:15:16;6.00;99.90
20376;DHT22;10347;51.828;6.466;2022-12-07T04:17:42;6.00;99.90
20376;DHT22;10347;51.828;6.466;2022-12-07T04:20:08;6.00;99.90
20376;DHT22;10347;51.828;6.466;2022-12-07T04:22:34;6.00;99.90
20376;DHT22;10347;51.828;6.466;2022-12-07T04:24:59;6.00;99.90
20376;DHT22;10347;51.828;6.466;2022-12-07T04:27:25;6.00;99.90
20376;DHT22;10347;51.828;6.466;2022-12-07T04:29:51;6.00;99.90
20376;DHT22;10347;51.828;6.466;2022-12-07T04:32:16;6.00;99.90
20376;DHT22;10347;51.828;6.466;2022-12-07T04:34:42;6.00;99.90
20376;DHT22;10347;51.828;6.466;2022-12-07T04:37:07;6.00;99.90
20376;DHT22;10347;51.828;6.466;2022-12-07T04:39:33;6.00;99.90
20376;DHT22;10347;51.828;6.466;2022-12-07T04:42:00;6.00;99.90
20376;DHT22;10347;51.828;6.466;2022-12-07T04:44:26;6.00;99.90
20376;DHT22;10347;51.828;6.466;2022-12-07T04:46:52;6.00;99.90
20376;DHT22;10347;51.828;6.466;2022-12-07T04:49:18;6.00;99.90
20376;DHT22;10347;51.828;6.466;2022-12-07T04:51:44;6.00;99.90
20376;DHT22;10347;51.828;6.466;2022-12-07T04:54:11;6.00;99.90
20376;DHT22;10347;51.828;6.466;2022-12-07T04:56:37;6.00;99.90
20376;DHT22;10347;51.828;6.466;2022-12-07T04:59:03;5.90;99.90
20376;DHT22;10347;51.828;6.466;2022-12-07T05:01:29;5.90;99.90
20376;DHT22;10347;51.828;6.466;2022-12-07T05:03:55;5.90;99.90
20376;DHT22;10347;51.828;6.466;2022-12-07T05:06:21;5.90;99.90
20376;DHT22;10347;51.828;6.466;2022-12-07T05:08:46;5.90;99.90
20376;DHT22;10347;51.828;6.466;2022-12-07T05:11:13;6.00;99.90
20376;DHT22;10347;51.828;6.466;2022-12-07T05:13:57;6.00;99.90
20376;DHT22;10347;51.828;6.466;2022-12-07T05:16:23;6.00;99.90
20376;DHT22;10347;51.828;6.466;2022-12-07T05:18:49;6.00;99.90
20376;DHT22;10347;51.828;6.466;2022-12-07T05:21:14;6.00;99.90
20376;DHT22;10347;51.828;6.466;2022-12-07T05:23:40;6.00;99.90
20376;DHT22;10347;51.828;6.466;2022-12-07T05:26:05;6.00;99.90
20376;DHT22;10347;51.828;6.466;2022-12-07T05:28:31;6.00;99.90
20376;DHT22;10347;51.828;6.466;2022-12-07T05:30:56;6.00;99.90
20376;DHT22;10347;51.828;6.466;2022-12-07T05:33:22;6.00;99.90
20376;DHT22;10347;51.828;6.466;2022-12-07T05:35:47;6.00;99.90
20376;DHT22;10347;51.828;6.466;2022-12-07T05:38:13;6.00;99.90
20376;DHT22;10347;51.828;6.466;2022-12-07T05:40:38;6.00;99.90
20376;DHT22;10347;51.828;6.466;2022-12-07T05:43:04;6.00;99.90
20376;DHT22;10347;51.828;6.466;2022-12-07T05:45:30;6.00;99.90
20376;DHT22;10347;51.828;6.466;2022-12-07T05:47:55;6.10;99.90
20376;DHT22;10347;51.828;6.466;2022-12-07T05:50:21;6.10;99.90
20376;DHT22;10347;51.828;6.466;2022-12-07T05:52:46;6.10;99.90
20376;DHT22;10347;51.828;6.466;2022-12-07T05:55:12;6.10;99.90
20376;DHT22;10347;51.828;6.466;2022-12-07T05:57:38;6.10;99.90
20376;DHT22;10347;51.828;6.466;2022-12-07T06:00:05;6.10;99.90
20376;DHT22;10347;51.828;6.466;2022-12-07T06:02:31;6.10;99.90
20376;DHT22;10347;51.828;6.466;2022-12-07T06:04:56;6.00;99.90
20376;DHT22;10347;51.828;6.466;2022-12-07T06:07:22;6.00;99.90
20376;DHT22;10347;51.828;6.466;2022-12-07T06:09:47;6.00;99.90
20376;DHT22;10347;51.828;6.466;2022-12-07T06:12:14;6.00;99.90
20376;DHT22;10347;51.828;6.466;2022-12-07T06:14:58;5.90;99.90
20376;DHT22;10347;51.828;6.466;2022-12-07T06:17:24;5.90;99.90
20376;DHT22;10347;51.828;6.466;2022-12-07T06:19:50;5.90;99.90
20376;DHT22;10347;51.828;6.466;2022-12-07T06:22:15;5.90;99.90
20376;DHT22;10347;51.828;6.466;2022-12-07T06:24:41;5.90;99.90
20376;DHT22;10347;51.828;6.466;2022-12-07T06:27:07;5.80;99.90
20376;DHT22;10347;51.828;6.466;2022-12-07T06:29:33;5.80;99.90
20376;DHT22;10347;51.828;6.466;2022-12-07T06:31:58;5.80;99.90
20376;DHT22;10347;51.828;6.466;2022-12-07T06:34:25;5.80;99.90
20376;DHT22;10347;51.828;6.466;2022-12-07T06:36:51;5.70;99.90
20376;DHT22;10347;51.828;6.466;2022-12-07T06:39:19;5.60;99.90
20376;DHT22;10347;51.828;6.466;2022-12-07T06:41:45;5.70;99.90
20376;DHT22;10347;51.828;6.466;2022-12-07T06:44:11;5.60;99.90
20376;DHT22;10347;51.828;6.466;2022-12-07T06:46:37;5.60;99.90
20376;DHT22;10347;51.828;6.466;2022-12-07T06:49:04;5.60;99.90
20376;DHT22;10347;51.828;6.466;2022-12-07T06:51:30;5.60;99.90
20376;DHT22;10347;51.828;6.466;2022-12-07T06:53:56;5.60;99.90
20376;DHT22;10347;51.828;6.466;2022-12-07T06:56:21;5.60;99.90
20376;DHT22;10347;51.828;6.466;2022-12-07T06:58:48;5.60;99.90
20376;DHT22;10347;51.828;6.466;2022-12-07T07:01:15;5.60;99.90
20376;DHT22;10347;51.828;6.466;2022-12-07T07:03:42;5.60;99.90
20376;DHT22;10347;51.828;6.466;2022-12-07T07:06:08;5.50;99.90
20376;DHT22;10347;51.828;6.466;2022-12-07T07:08:35;5.60;99.90
20376;DHT22;10347;51.828;6.466;2022-12-07T07:11:00;5.60;99.90
20376;DHT22;10347;51.828;6.466;2022-12-07T07:13:27;5.70;99.90
20376;DHT22;10347;51.828;6.466;2022-12-07T07:15:53;5.70;99.90
20376;DHT22;10347;51.828;6.466;2022-12-07T07:18:18;5.70;99.90
20376;DHT22;10347;51.828;6.466;2022-12-07T07:20:44;5.70;99.90
20376;DHT22;10347;51.828;6.466;2022-12-07T07:23:10;5.70;99.90
20376;DHT22;10347;51.828;6.466;2022-12-07T07:25:35;5.60;99.90
20376;DHT22;10347;51.828;6.466;2022-12-07T07:28:01;5.70;99.90
20376;DHT22;10347;51.828;6.466;2022-12-07T07:30:26;5.60;99.90
20376;DHT22;10347;51.828;6.466;2022-12-07T07:32:59;5.60;99.90
20376;DHT22;10347;51.828;6.466;2022-12-07T07:35:26;5.60;99.90
20376;DHT22;10347;51.828;6.466;2022-12-07T07:37:51;5.60;99.90
20376;DHT22;10347;51.828;6.466;2022-12-07T07:40:17;5.60;99.90
20376;DHT22;10347;51.828;6.466;2022-12-07T07:42:43;5.60;99.90
20376;DHT22;10347;51.828;6.466;2022-12-07T07:45:09;5.50;99.90
20376;DHT22;10347;51.828;6.466;2022-12-07T07:47:35;5.50;99.90
20376;DHT22;10347;51.828;6.466;2022-12-07T07:50:01;5.50;99.90
20376;DHT22;10347;51.828;6.466;2022-12-07T07:52:26;5.60;99.90
20376;DHT22;10347;51.828;6.466;2022-12-07T07:54:52;5.50;99.90
20376;DHT22;10347;51.828;6.466;2022-12-07T07:57:18;5.50;99.90
20376;DHT22;10347;51.828;6.466;2022-12-07T07:59:43;5.50;99.90
20376;DHT22;10347;51.828;6.466;2022-12-07T08:02:14;5.40;99.90
20376;DHT22;10347;51.828;6.466;2022-12-07T08:04:40;5.40;99.90
20376;DHT22;10347;51.828;6.466;2022-12-07T08:07:06;5.40;99.90
20376;DHT22;10347;51.828;6.466;2022-12-07T08:09:31;5.40;99.90
20376;DHT22;10347;51.828;6.466;2022-12-07T08:11:57;5.40;99.90
20376;DHT22;10347;51.828;6.466;2022-12-07T08:14:24;5.40;99.90
20376;DHT22;10347;51.828;6.466;2022-12-07T08:16:49;5.40;99.90
20376;DHT22;10347;51.828;6.466;2022-12-07T08:19:15;5.40;99.90
20376;DHT22;10347;51.828;6.466;2022-12-07T08:21:41;5.40;99.90
20376;DHT22;10347;51.828;6.466;2022-12-07T08:24:06;5.40;99.90
20376;DHT22;10347;51.828;6.466;2022-12-07T08:26:32;5.40;99.90
20376;DHT22;10347;51.828;6.466;2022-12-07T08:28:57;5.30;99.90
20376;DHT22;10347;51.828;6.466;2022-12-07T08:31:23;5.40;99.90
20376;DHT22;10347;51.828;6.466;2022-12-07T08:33:49;5.40;99.90
20376;DHT22;10347;51.828;6.466;2022-12-07T08:36:15;5.40;99.90
20376;DHT22;10347;51.828;6.466;2022-12-07T08:38:41;5.50;99.90
20376;DHT22;10347;51.828;6.466;2022-12-07T08:41:07;5.40;99.90
20376;DHT22;10347;51.828;6.466;2022-12-07T08:43:33;5.40;99.90
20376;DHT22;10347;51.828;6.466;2022-12-07T08:48:36;5.50;99.90
20376;DHT22;10347;51.828;6.466;2022-12-07T08:51:03;5.40;99.90
20376;DHT22;10347;51.828;6.466;2022-12-07T08:53:29;5.40;99.90
20376;DHT22;10347;51.828;6.466;2022-12-07T08:55:55;5.50;99.90
20376;DHT22;10347;51.828;6.466;2022-12-07T08:58:21;5.50;99.90
20376;DHT22;10347;51.828;6.466;2022-12-07T09:00:47;5.50;99.90
20376;DHT22;10347;51.828;6.466;2022-12-07T09:03:13;5.50;99.90
20376;DHT22;10347;51.828;6.466;2022-12-07T09:05:38;5.60;99.90
20376;DHT22;10347;51.828;6.466;2022-12-07T09:08:04;5.60;99.90
20376;DHT22;10347;51.828;6.466;2022-12-07T09:10:30;5.60;99.90
20376;DHT22;10347;51.828;6.466;2022-12-07T09:12:56;5.60;99.90
20376;DHT22;10347;51.828;6.466;2022-12-07T09:15:26;5.70;99.90
20376;DHT22;10347;51.828;6.466;2022-12-07T09:17:52;5.70;99.90
20376;DHT22;10347;51.828;6.466;2022-12-07T09:20:18;5.70;99.90
20376;DHT22;10347;51.828;6.466;2022-12-07T09:22:44;5.80;99.90
20376;DHT22;10347;51.828;6.466;2022-12-07T09:25:09;5.80;99.90
20376;DHT22;10347;51.828;6.466;2022-12-07T09:27:35;5.90;99.90
20376;DHT22;10347;51.828;6.466;2022-12-07T09:30:01;6.00;99.90
20376;DHT22;10347;51.828;6.466;2022-12-07T09:32:26;6.00;99.90
20376;DHT22;10347;51.828;6.466;2022-12-07T09:34:52;6.00;99.90
20376;DHT22;10347;51.828;6.466;2022-12-07T09:37:18;6.10;99.90
20376;DHT22;10347;51.828;6.466;2022-12-07T09:39:43;6.10;99.90
20376;DHT22;10347;51.828;6.466;2022-12-07T09:42:36;6.20;99.90
20376;DHT22;10347;51.828;6.466;2022-12-07T09:45:05;6.20;99.90
20376;DHT22;10347;51.828;6.466;2022-12-07T09:47:32;6.20;99.90
20376;DHT22;10347;51.828;6.466;2022-12-07T09:50:15;6.20;99.90
20376;DHT22;10347;51.828;6.466;2022-12-07T09:52:42;6.30;99.90
20376;DHT22;10347;51.828;6.466;2022-12-07T09:55:14;6.30;99.90
20376;DHT22;10347;51.828;6.466;2022-12-07T09:57:41;6.30;99.90
20376;DHT22;10347;51.828;6.466;2022-12-07T10:00:16;6.30;99.90
20376;DHT22;10347;51.828;6.466;2022-12-07T10:02:59;6.40;99.90
20376;DHT22;10347;51.828;6.466;2022-12-07T10:08:26;6.50;99.90
20376;DHT22;10347;51.828;6.466;2022-12-07T10:10:54;6.50;99.90
20376;DHT22;10347;51.828;6.466;2022-12-07T10:13:45;6.50;99.90
20376;DHT22;10347;51.828;6.466;2022-12-07T10:16:28;6.60;99.90
20376;DHT22;10347;51.828;6.466;2022-12-07T10:18:55;6.60;99.90
20376;DHT22;10347;51.828;6.466;2022-12-07T10:21:23;6.70;99.90
20376;DHT22;10347;51.828;6.466;2022-12-07T10:24:03;6.80;99.90
20376;DHT22;10347;51.828;6.466;2022-12-07T10:26:38;6.90;99.90
20376;DHT22;10347;51.828;6.466;2022-12-07T10:31:42;7.00;99.90
20376;DHT22;10347;51.828;6.466;2022-12-07T10:34:29;7.00;99.90
20376;DHT22;10347;51.828;6.466;2022-12-07T10:37:17;7.10;99.90
20376;DHT22;10347;51.828;6.466;2022-12-07T10:39:48;7.10;99.90
20376;DHT22;10347;51.828;6.466;2022-12-07T10:42:24;7.20;99.90
20376;DHT22;10347;51.828;6.466;2022-12-07T10:47:44;7.20;99.90
20376;DHT22;10347;51.828;6.466;2022-12-07T10:50:29;7.20;99.90
20376;DHT22;10347;51.828;6.466;2022-12-07T10:53:12;7.20;99.90
20376;DHT22;10347;51.828;6.466;2022-12-07T11:01:32;7.30;99.90
20376;DHT22;10347;51.828;6.466;2022-12-07T11:06:34;7.30;99.90
20376;DHT22;10347;51.828;6.466;2022-12-07T11:12:24;7.30;99.90
20376;DHT22;10347;51.828;6.466;2022-12-07T11:18:19;7.40;99.90
20376;DHT22;10347;51.828;6.466;2022-12-07T11:24:03;7.40;99.90
20376;DHT22;10347;51.828;6.466;2022-12-07T11:32:22;7.50;99.90
20376;DHT22;10347;51.828;6.466;2022-12-07T11:37:44;7.50;99.90
20376;DHT22;10347;51.828;6.466;2022-12-07T11:40:25;7.60;99.90
20376;DHT22;10347;51.828;6.466;2022-12-07T11:42:55;7.60;99.90
20376;DHT22;10347;51.828;6.466;2022-12-07T11:45:29;7.60;99.90
20376;DHT22;10347;51.828;6.466;2022-12-07T11:48:16;7.70;99.90
20376;DHT22;10347;51.828;6.466;2022-12-07T11:50:53;7.70;99.90
20376;DHT22;10347;51.828;6.466;2022-12-07T11:53:24;7.60;99.90
20376;DHT22;10347;51.828;6.466;2022-12-07T11:56:03;7.60;99.90
20376;DHT22;10347;51.828;6.466;2022-12-07T12:03:47;7.70;99.90
20376;DHT22;10347;51.828;6.466;2022-12-07T12:06:13;7.60;99.90
20376;DHT22;10347;51.828;6.466;2022-12-07T12:13:54;7.60;99.90
20376;DHT22;10347;51.828;6.466;2022-12-07T12:16:49;7.60;99.90
20376;DHT22;10347;51.828;6.466;2022-12-07T12:19:27;7.60;99.90
20376;DHT22;10347;51.828;6.466;2022-12-07T12:22:04;7.60;99.90
20376;DHT22;10347;51.828;6.466;2022-12-07T12:24:32;7.60;99.90
20376;DHT22;10347;51.828;6.466;2022-12-07T12:27:15;7.60;99.90
20376;DHT22;10347;51.828;6.466;2022-12-07T12:29:43;7.70;99.90
20376;DHT22;10347;51.828;6.466;2022-12-07T12:32:21;7.70;99.90
20376;DHT22;10347;51.828;6.466;2022-12-07T12:45:28;7.80;99.90
20376;DHT22;10347;51.828;6.466;2022-12-07T12:48:04;7.80;99.90
20376;DHT22;10347;51.828;6.466;2022-12-07T12:50:36;7.80;99.90
20376;DHT22;10347;51.828;6.466;2022-12-07T12:53:21;7.80;99.90
20376;DHT22;10347;51.828;6.466;2022-12-07T12:55:52;7.80;99.90
20376;DHT22;10347;51.828;6.466;2022-12-07T13:00:46;7.80;99.90
20376;DHT22;10347;51.828;6.466;2022-12-07T13:03:30;7.80;99.90
20376;DHT22;10347;51.828;6.466;2022-12-07T13:08:51;7.90;99.90
20376;DHT22;10347;51.828;6.466;2022-12-07T13:11:34;7.90;99.90
20376;DHT22;10347;51.828;6.466;2022-12-07T13:17:08;7.90;99.90
20376;DHT22;10347;51.828;6.466;2022-12-07T13:25:10;8.00;99.90
20376;DHT22;10347;51.828;6.466;2022-12-07T13:27:41;8.00;99.90
20376;DHT22;10347;51.828;6.466;2022-12-07T13:30:15;8.00;99.90
20376;DHT22;10347;51.828;6.466;2022-12-07T13:32:41;8.00;99.90
20376;DHT22;10347;51.828;6.466;2022-12-07T13:35:29;7.90;99.90
20376;DHT22;10347;51.828;6.466;2022-12-07T13:37:55;7.90;99.90
20376;DHT22;10347;51.828;6.466;2022-12-07T13:40:22;7.90;99.90
20376;DHT22;10347;51.828;6.466;2022-12-07T13:43:00;7.90;99.90
20376;DHT22;10347;51.828;6.466;2022-12-07T13:45:31;7.90;99.90
20376;DHT22;10347;51.828;6.466;2022-12-07T13:48:41;7.90;99.90
20376;DHT22;10347;51.828;6.466;2022-12-07T13:51:21;7.80;99.90
20376;DHT22;10347;51.828;6.466;2022-12-07T13:54:10;7.90;99.90
20376;DHT22;10347;51.828;6.466;2022-12-07T13:56:35;7.90;99.90
20376;DHT22;10347;51.828;6.466;2022-12-07T13:59:01;7.80;99.90
20376;DHT22;10347;51.828;6.466;2022-12-07T14:01:27;7.80;99.90
20376;DHT22;10347;51.828;6.466;2022-12-07T14:03:53;7.80;99.90
20376;DHT22;10347;51.828;6.466;2022-12-07T14:06:27;7.80;99.90
20376;DHT22;10347;51.828;6.466;2022-12-07T14:09:26;7.80;99.90
20376;DHT22;10347;51.828;6.466;2022-12-07T14:11:54;7.80;99.90
20376;DHT22;10347;51.828;6.466;2022-12-07T14:14:26;7.80;99.90
20376;DHT22;10347;51.828;6.466;2022-12-07T14:17:16;7.80;99.90
20376;DHT22;10347;51.828;6.466;2022-12-07T14:19:59;7.80;99.90
20376;DHT22;10347;51.828;6.466;2022-12-07T14:22:26;7.80;99.90
20376;DHT22;10347;51.828;6.466;2022-12-07T14:27:55;7.80;99.90
20376;DHT22;10347;51.828;6.466;2022-12-07T14:30:23;7.90;99.90
20376;DHT22;10347;51.828;6.466;2022-12-07T14:33:13;7.90;99.90
20376;DHT22;10347;51.828;6.466;2022-12-07T14:35:37;7.90;99.90
20376;DHT22;10347;51.828;6.466;2022-12-07T14:38:05;7.90;99.90
20376;DHT22;10347;51.828;6.466;2022-12-07T14:40:32;7.90;99.90
20376;DHT22;10347;51.828;6.466;2022-12-07T14:43:02;7.90;99.90
20376;DHT22;10347;51.828;6.466;2022-12-07T14:45:28;7.90;99.90
20376;DHT22;10347;51.828;6.466;2022-12-07T14:47:53;7.90;99.90
20376;DHT22;10347;51.828;6.466;2022-12-07T14:50:20;7.90;99.90
20376;DHT22;10347;51.828;6.466;2022-12-07T14:52:56;7.90;99.90
20376;DHT22;10347;51.828;6.466;2022-12-07T14:55:26;7.90;99.90
20376;DHT22;10347;51.828;6.466;2022-12-07T14:57:52;7.90;99.90
20376;DHT22;10347;51.828;6.466;2022-12-07T15:00:19;8.00;99.90
20376;DHT22;10347;51.828;6.466;2022-12-07T15:02:46;8.00;99.90
20376;DHT22;10347;51.828;6.466;2022-12-07T15:05:12;7.90;99.90
20376;DHT22;10347;51.828;6.466;2022-12-07T15:07:38;7.90;99.90
20376;DHT22;10347;51.828;6.466;2022-12-07T15:10:05;7.90;99.90
20376;DHT22;10347;51.828;6.466;2022-12-07T15:12:31;7.90;99.90
20376;DHT22;10347;51.828;6.466;2022-12-07T15:14:56;7.90;99.90
20376;DHT22;10347;51.828;6.466;2022-12-07T15:17:22;7.80;99.90
20376;DHT22;10347;51.828;6.466;2022-12-07T15:19:47;7.80;99.90
20376;DHT22;10347;51.828;6.466;2022-12-07T15:22:13;7.80;99.90
20376;DHT22;10347;51.828;6.466;2022-12-07T15:24:38;7.80;99.90
20376;DHT22;10347;51.828;6.466;2022-12-07T15:27:04;7.80;99.90
20376;DHT22;10347;51.828;6.466;2022-12-07T15:29:30;7.80;99.90
20376;DHT22;10347;51.828;6.466;2022-12-07T15:31:56;7.80;99.90
20376;DHT22;10347;51.828;6.466;2022-12-07T15:34:24;7.80;99.90
20376;DHT22;10347;51.828;6.466;2022-12-07T15:36:50;7.70;99.90
20376;DHT22;10347;51.828;6.466;2022-12-07T15:39:16;7.70;99.90
20376;DHT22;10347;51.828;6.466;2022-12-07T15:41:41;7.70;99.90
20376;DHT22;10347;51.828;6.466;2022-12-07T15:44:11;7.70;99.90
20376;DHT22;10347;51.828;6.466;2022-12-07T15:46:55;7.70;99.90
20376;DHT22;10347;51.828;6.466;2022-12-07T15:49:21;7.70;99.90
20376;DHT22;10347;51.828;6.466;2022-12-07T15:51:46;7.70;99.90
20376;DHT22;10347;51.828;6.466;2022-12-07T15:54:21;7.70;99.90
20376;DHT22;10347;51.828;6.466;2022-12-07T15:56:46;7.70;99.90
20376;DHT22;10347;51.828;6.466;2022-12-07T15:59:13;7.70;99.90
20376;DHT22;10347;51.828;6.466;2022-12-07T16:01:38;7.70;99.90
20376;DHT22;10347;51.828;6.466;2022-12-07T16:04:04;7.70;99.90
20376;DHT22;10347;51.828;6.466;2022-12-07T16:06:30;7.70;99.90
20376;DHT22;10347;51.828;6.466;2022-12-07T16:08:55;7.70;99.90
20376;DHT22;10347;51.828;6.466;2022-12-07T16:11:21;7.70;99.90
20376;DHT22;10347;51.828;6.466;2022-12-07T16:13:47;7.70;99.90
20376;DHT22;10347;51.828;6.466;2022-12-07T16:16:15;7.70;99.90
20376;DHT22;10347;51.828;6.466;2022-12-07T16:18:42;7.60;99.90
20376;DHT22;10347;51.828;6.466;2022-12-07T16:21:08;7.70;99.90
20376;DHT22;10347;51.828;6.466;2022-12-07T16:23:33;7.70;99.90
20376;DHT22;10347;51.828;6.466;2022-12-07T16:26:09;7.70;99.90
20376;DHT22;10347;51.828;6.466;2022-12-07T16:28:35;7.70;99.90
20376;DHT22;10347;51.828;6.466;2022-12-07T16:31:13;7.70;99.90
20376;DHT22;10347;51.828;6.466;2022-12-07T16:33:40;7.70;99.90
20376;DHT22;10347;51.828;6.466;2022-12-07T16:36:07;7.60;99.90
20376;DHT22;10347;51.828;6.466;2022-12-07T16:38:34;7.60;99.90
20376;DHT22;10347;51.828;6.466;2022-12-07T16:41:00;7.60;99.90
20376;DHT22;10347;51.828;6.466;2022-12-07T16:43:25;7.60;99.90
20376;DHT22;10347;51.828;6.466;2022-12-07T16:45:51;7.50;99.90
20376;DHT22;10347;51.828;6.466;2022-12-07T16:48:17;7.50;99.90
20376;DHT22;10347;51.828;6.466;2022-12-07T16:50:43;7.50;99.90
20376;DHT22;10347;51.828;6.466;2022-12-07T16:53:10;7.50;99.90
20376;DHT22;10347;51.828;6.466;2022-12-07T16:55:40;7.50;99.90
20376;DHT22;10347;51.828;6.466;2022-12-07T16:58:07;7.50;99.90
20376;DHT22;10347;51.828;6.466;2022-12-07T17:00:33;7.40;99.90
20376;DHT22;10347;51.828;6.466;2022-12-07T17:03:01;7.40;99.90
20376;DHT22;10347;51.828;6.466;2022-12-07T17:05:27;7.40;99.90
20376;DHT22;10347;51.828;6.466;2022-12-07T17:07:55;7.40;99.90
20376;DHT22;10347;51.828;6.466;2022-12-07T17:10:22;7.40;99.90
20376;DHT22;10347;51.828;6.466;2022-12-07T17:12:48;7.40;99.90
20376;DHT22;10347;51.828;6.466;2022-12-07T17:15:14;7.40;99.90
20376;DHT22;10347;51.828;6.466;2022-12-07T17:17:50;7.40;99.90
20376;DHT22;10347;51.828;6.466;2022-12-07T17:20:18;7.40;99.90
20376;DHT22;10347;51.828;6.466;2022-12-07T17:22:44;7.30;99.90
20376;DHT22;10347;51.828;6.466;2022-12-07T17:25:10;7.30;99.90
20376;DHT22;10347;51.828;6.466;2022-12-07T17:27:36;7.20;99.90
20376;DHT22;10347;51.828;6.466;2022-12-07T17:30:06;7.20;99.90
20376;DHT22;10347;51.828;6.466;2022-12-07T17:32:32;7.20;99.90
20376;DHT22;10347;51.828;6.466;2022-12-07T17:34:57;7.30;99.90
20376;DHT22;10347;51.828;6.466;2022-12-07T17:37:23;7.20;99.90
20376;DHT22;10347;51.828;6.466;2022-12-07T17:39:49;7.30;99.90
20376;DHT22;10347;51.828;6.466;2022-12-07T17:42:14;7.30;99.90
20376;DHT22;10347;51.828;6.466;2022-12-07T17:44:59;7.20;99.90
20376;DHT22;10347;51.828;6.466;2022-12-07T17:47:24;7.20;99.90